EGSS/STN METAR and TAF weather

Enter ICAO airport designator
Station Type Date Time Source
EGSS METAR 2020/01/22 20:50 UTC NOAA

EGSS 222050Z AUTO VRB02KT 0300 R04/0650 FG VV/// 06/06 Q1036


Station Type Date Time Source
EGSS Decoded METAR 2020/01/22 20:50 UTC NOAA

Stansted Airport, United Kingdom (EGSS) 51-53N 000-14E 0M
Jan 22, 2020 - 03:50 PM EST / 2020.01.22 2050 UTC
Wind: Variable at 2 MPH (2 KT):0
Visibility: less than 1 mile:0
Sky conditions: obscured
Weather: fog
Temperature: 42 F (6 C)
Dew Point: 42 F (6 C)
Relative Humidity: 100%
Pressure (altimeter): 30.59 in. Hg (1036 hPa)
ob: EGSS 222050Z AUTO VRB02KT 0300 R04/0650 FG VV/// 06/06 Q1036
cycle: 21

Station Type Date Time Source
EGSS TAF 2020/01/22 18:09 UTC NOAA

TAF TAF EGSS 221704Z 2218/2324 05003KT 0600 FG OVC001
BECMG 2218/2220 2000 BR SCT002 BKN010
TEMPO 2218/2220 0300
BECMG 2220/2223 BKN025
TEMPO 2220/2310 0800 BCFG PROB40
TEMPO 2220/2310 0300 FG BKN000
TEMPO 2310/2324 BKN003

Example: see airport list